Estación municipal de Seva (Osona, P.N. del Montseny)

Consulta los datos en tiempo real de la estación municipal de Seva





Hora UTC 15:15
Temperatura 13.2 ºC
Suelo 15 cm 12.2 ºC
Humedad 89.6 %
Presión 1012.7 hPa
Pluja 1.5 mm
Velocidad viento 9.0 km/h
Dirección viento NNE
Radiación solar 46.6 W/m²

Webcam

Datos diarios 2026-05-09



Hora UTC (invierno +1h; verano +2h)
Temperatura (ºC) Humedad (%) Presión (hPa) Velocidad viento (km/h) Precipitación (mm) Radiación solar (W/m²)
Hora UTC Aire Suelo 15 cm Humedad Presión Vel. Dir. Vel. Max Dir. Intent. máx 5 min. Rad. Sol.
00:05 9.5 7.6 93.9 1017.2 5.8 SE 5.8 SE 0.0 0.1
00:10 9.7 7.8 93.4 1017.2 7.0 ESE 10.6 SE 0.0 0.1
00:15 9.8 7.9 92.3 1017.2 6.9 ESE 10.2 ESE 0.0 0.1
00:20 10.0 8.0 91.8 1017.3 5.7 SE 11.3 SE 0.0 0.1
00:25 9.9 8.0 91.4 1017.3 3.5 SE 5.6 ESE 0.0 0.1
00:30 9.8 7.7 91.8 1017.2 4.2 ESE 8.1 ESE 0.0 0.0
00:35 9.5 7.5 92.4 1017.2 5.2 ESE 7.8 ESE 0.0 0.1
00:40 9.5 7.5 93.0 1017.1 4.3 SE 6.4 SE 0.0 0.1
00:45 9.4 7.5 93.1 1017.1 0.4 SSW 2.1 SSW 0.0 0.1
00:50 9.1 7.6 93.2 1017.2 0.0 WSW 1.1 WSW 0.0 0.1
00:55 9.2 7.7 93.9 1017.2 0.3 SE 3.2 SE 0.0 0.1
01:00 9.3 8.0 94.2 1017.2 0.6 NW 2.1 WNW 0.0 0.1
01:05 9.3 8.2 94.2 1017.2 2.6 NE 6.0 NNE 0.0 0.1
01:10 9.5 8.5 94.3 1017.1 2.8 E 5.6 ENE 0.0 0.1
01:15 9.6 8.6 94.0 1017.1 5.0 ENE 7.1 ENE 0.0 0.1
01:20 9.7 8.7 93.8 1017.0 4.5 ENE 6.4 ENE 0.0 0.1
01:25 9.8 8.8 93.8 1017.0 4.2 E 5.6 E 0.0 0.1
01:30 9.9 8.9 93.5 1016.9 3.8 ENE 6.4 E 0.0 0.1
01:35 10.0 9.1 93.0 1016.8 3.6 ENE 5.6 ENE 0.0 0.1
01:40 10.0 9.2 92.7 1016.8 1.9 ENE 3.9 ENE 0.0 0.0
01:45 10.1 9.3 92.4 1016.8 2.5 NE 4.2 NE 0.0 0.1
01:50 10.2 9.5 92.1 1016.8 2.9 NE 3.9 NE 0.0 0.1
01:55 10.3 9.5 92.3 1016.8 4.6 ENE 10.2 E 0.0 0.1
02:00 10.4 9.6 92.0 1016.8 4.1 ENE 7.8 NE 0.0 0.1
02:05 10.4 9.7 91.5 1016.8 4.8 ENE 8.5 NE 0.0 0.1
02:10 10.5 9.7 91.3 1016.7 4.7 ENE 8.5 ENE 0.0 0.0
02:15 10.5 9.7 91.3 1016.6 4.0 E 7.1 E 0.0 0.1
02:20 10.5 9.7 91.2 1016.6 2.9 ENE 5.6 ENE 0.0 0.1
02:25 10.5 9.6 91.3 1016.5 3.9 NNW 7.1 NW 0.0 0.1
02:30 10.0 9.2 91.9 1016.4 3.9 NW 6.0 NW 0.0 0.1
02:35 9.6 8.7 92.7 1016.3 1.7 N 3.5 N 0.0 0.1
02:40 9.4 8.2 93.5 1016.2 1.9 NE 3.2 NE 0.0 0.1
02:45 9.2 7.9 94.1 1016.3 0.1 ENE 1.8 ENE 0.0 0.1
02:50 9.1 7.6 94.5 1016.3 0.2 W 1.8 W 0.0 0.1
02:55 9.1 7.6 95.2 1016.4 2.2 W 3.5 WNW 0.0 0.0
03:00 8.9 7.5 95.4 1016.4 2.7 W 3.9 W 0.0 0.1
03:05 8.9 7.4 95.8 1016.3 3.5 NW 7.1 NNW 0.0 0.1
03:10 8.8 7.3 96.1 1016.3 2.4 N 3.9 NNW 0.0 0.1
03:15 8.7 7.2 96.2 1016.2 0.8 NE 3.2 NE 0.0 0.1
03:20 8.7 7.1 96.5 1016.2 2.9 ENE 4.2 ENE 0.0 0.1
03:25 8.6 7.0 96.5 1016.2 1.6 E 3.9 ENE 0.0 0.1
03:30 8.4 6.9 96.6 1016.2 1.9 ENE 3.5 ENE 0.0 0.0
03:35 8.4 6.7 96.8 1016.2 3.0 E 4.2 E 0.0 0.1
03:40 8.3 6.7 96.8 1016.2 3.0 E 3.9 E 0.0 0.1
03:45 8.3 6.9 97.0 1016.2 2.7 ESE 3.9 ESE 0.0 0.1
03:50 8.5 7.2 97.3 1016.2 1.0 SE 3.2 ESE 0.0 0.1
03:55 8.7 7.6 97.6 1016.2 0.4 SSW 1.8 SSW 0.0 0.1
04:00 8.9 7.9 97.6 1016.1 0.7 S 1.8 S 0.0 0.1
04:05 8.9 8.1 97.5 1016.0 0.0 NNE 0.0 S 0.0 0.1
04:10 9.0 8.3 97.6 1016.0 1.5 SSW 3.5 SSW 0.0 0.1
04:15 9.2 8.4 97.6 1016.1 2.4 SW 4.6 SSW 0.0 0.1
04:20 9.3 8.6 97.5 1016.0 0.6 SSW 2.5 SW 0.0 0.1
04:25 9.4 8.7 97.4 1016.0 0.7 ESE 2.8 SE 0.0 0.2
04:30 9.4 8.7 97.3 1016.0 1.3 SE 2.8 SE 0.0 0.7
04:35 9.5 8.8 97.3 1016.0 2.1 S 3.5 SSE 0.0 1.0
04:40 9.6 8.9 97.3 1016.0 1.4 SSE 3.2 S 0.0 0.7
04:45 9.7 9.0 97.1 1016.1 1.5 S 3.9 S 0.0 1.0
04:50 9.8 9.1 97.0 1016.1 3.0 SSE 4.6 SE 0.0 2.0
04:55 9.9 9.2 96.9 1016.1 1.6 SSW 4.6 SSE 0.0 5.1
05:00 9.9 9.3 96.8 1016.0 0.0 NNE 0.0 SW 0.0 12.6
05:05 10.0 9.2 96.7 1016.0 3.7 E 4.6 E 0.0 19.2
05:10 9.9 9.1 96.5 1016.0 2.1 E 4.2 E 0.0 21.8
05:15 9.9 9.1 96.5 1016.0 2.6 E 3.5 E 0.0 23.2
05:20 9.9 9.3 96.5 1016.0 3.2 ENE 4.6 E 0.0 25.7
05:25 10.0 9.5 96.5 1016.1 2.7 E 5.3 ENE 0.0 26.7
05:30 10.1 9.6 96.4 1016.2 1.6 ESE 3.9 ESE 0.0 27.7
05:35 10.2 9.8 96.4 1016.1 0.0 ENE 1.1 ENE 0.0 29.9
05:40 10.4 10.0 96.3 1016.2 0.1 W 1.8 WSW 0.0 33.3
05:45 10.5 10.3 96.0 1016.1 1.7 W 3.5 W 0.0 47.0
05:50 10.6 10.5 95.4 1016.1 0.2 WNW 2.5 WNW 0.0 51.9
05:55 10.7 10.6 95.0 1016.1 0.0 NNE 0.0 WNW 0.0 54.2
06:00 10.8 10.8 94.6 1016.2 0.4 N 2.1 N 0.0 55.0
06:05 10.9 11.0 94.4 1016.1 2.5 NNW 4.2 NNW 0.0 60.9
06:10 11.0 11.1 94.2 1016.1 4.1 NNW 5.6 NNW 0.0 64.8
06:15 10.8 11.1 93.7 1016.2 3.7 N 5.6 N 0.0 70.1
06:20 10.8 11.1 93.7 1016.3 3.4 NW 5.6 NW 0.0 69.7
06:25 10.8 11.1 94.1 1016.2 1.9 NW 4.2 NW 0.0 82.7
06:30 10.7 11.2 94.3 1016.2 5.3 NNW 7.8 N 0.0 107.0
06:35 10.8 11.6 94.8 1016.1 3.9 NNW 7.8 NNW 0.0 183.9
06:40 11.0 12.4 94.8 1016.1 3.0 NNW 5.3 N 0.0 198.1
06:45 11.0 12.8 94.2 1016.0 4.7 NNW 6.4 NNW 0.0 206.0
06:50 11.1 13.0 94.3 1016.0 4.8 NNW 8.5 N 0.0 214.7
06:55 11.2 13.1 94.0 1016.0 3.6 N 6.7 N 0.0 196.6
07:00 11.4 13.2 93.8 1016.0 4.6 NNW 7.8 N 0.0 209.5
07:05 11.4 13.4 93.4 1015.9 4.6 NNW 6.7 NNW 0.0 208.3
07:10 11.4 13.5 93.3 1015.9 4.6 NNW 6.0 N 0.0 221.9
07:15 11.3 13.6 93.4 1015.8 4.7 N 7.8 NNW 0.0 226.0
07:20 11.3 13.8 93.5 1015.8 3.2 NW 5.6 NW 0.0 225.4
07:25 11.4 14.1 93.6 1015.8 4.2 WNW 8.1 WNW 0.0 246.7
07:30 11.3 14.2 93.6 1015.9 4.1 W 6.4 W 0.0 213.1
07:35 11.4 14.1 93.3 1015.8 2.4 W 5.6 W 0.0 214.2
07:40 11.6 14.1 93.3 1015.8 3.4 WNW 5.6 NW 0.0 264.8
07:45 11.7 14.5 92.5 1015.8 1.4 NNW 4.6 NW 0.0 334.4
07:50 12.1 15.3 92.0 1015.6 4.0 NNW 6.7 NNW 0.0 362.9
07:55 12.1 16.1 91.2 1015.6 5.8 NNW 8.5 NNW 0.0 427.9
08:00 12.2 17.1 90.9 1015.6 5.2 WNW 8.5 NW 0.0 389.2
08:05 12.3 17.3 90.8 1015.6 4.4 WNW 7.1 WNW 0.0 415.5
08:10 12.6 18.0 90.7 1015.4 5.1 WNW 8.1 WNW 0.0 428.9
08:15 12.8 18.4 89.4 1015.3 4.9 WNW 8.1 WNW 0.0 467.8
08:20 13.0 19.2 88.6 1015.3 3.9 NW 7.1 WNW 0.0 501.2
08:25 13.5 19.7 87.8 1015.2 3.3 NW 7.1 NW 0.0 497.2
08:30 13.8 20.1 86.5 1015.2 4.2 WNW 7.1 NW 0.0 444.7
08:35 13.9 20.0 86.2 1015.1 6.2 WNW 10.9 WNW 0.0 431.9
08:40 13.9 19.6 86.4 1015.2 7.0 W 10.9 WNW 0.0 371.0
08:45 14.0 19.1 86.7 1015.2 8.4 WNW 13.4 NW 0.0 373.6
08:50 14.1 18.6 85.9 1015.3 8.8 WNW 11.6 W 0.0 345.6
08:55 14.4 18.5 85.6 1015.4 6.5 WNW 10.6 NW 0.0 338.7
09:00 14.9 18.6 83.5 1015.4 9.4 NW 14.5 N 0.0 326.4
09:05 15.1 18.5 80.5 1015.3 11.7 N 22.6 N 0.0 312.3
09:10 15.4 18.1 77.6 1015.3 10.6 N 24.3 NE 0.0 277.0
09:15 15.2 17.7 80.0 1015.2 9.5 N 20.1 NW 0.0 253.3
09:20 15.5 17.6 76.6 1015.3 9.8 NNE 19.4 NNW 0.0 249.5
09:25 15.7 17.8 75.2 1015.3 8.4 NNE 20.1 NE 0.0 340.9
09:30 16.0 18.3 74.4 1015.3 9.7 NNE 23.6 NNE 0.0 493.8
09:35 16.3 19.8 74.3 1015.4 11.0 NNE 21.2 N 0.0 675.7
09:40 16.5 20.7 73.1 1015.4 11.9 NNE 22.6 NNE 0.0 642.2
09:45 16.7 21.3 73.1 1015.4 8.6 NE 16.6 E 0.0 429.0
09:50 16.8 20.5 71.8 1015.5 9.4 NE 21.9 NE 0.0 248.4
09:55 16.2 19.1 72.1 1015.6 11.4 NE 22.6 NE 0.0 184.0
10:00 16.0 18.2 74.1 1015.5 7.0 NE 16.1 NE 0.0 171.8
10:05 15.9 17.6 73.3 1015.7 9.3 NE 20.1 ENE 0.0 154.8
10:10 15.7 17.2 74.4 1015.7 7.5 NE 19.1 NNE 0.0 210.9
10:15 15.7 17.4 74.5 1015.7 10.3 NE 21.2 NNE 0.0 303.5
10:20 15.9 17.7 74.5 1015.7 9.2 NE 18.0 NE 0.0 277.5
10:25 15.9 17.8 74.4 1015.7 11.3 NE 23.6 NE 0.0 246.4
10:30 15.8 17.5 74.5 1015.6 9.6 NE 19.4 ENE 0.0 237.3
10:35 15.9 17.4 74.3 1015.5 6.4 ENE 17.6 ENE 0.0 250.5
10:40 15.9 17.5 72.8 1015.6 11.5 NE 24.0 NE 0.0 216.4
10:45 15.7 17.1 72.3 1015.7 9.3 NE 20.8 NNE 0.0 163.3
10:50 15.8 16.8 72.3 1015.6 6.3 NE 18.4 E 0.0 106.4
10:55 15.5 16.4 72.0 1015.6 7.8 NE 15.2 ENE 0.0 75.2
11:00 15.4 16.0 73.5 1015.6 6.6 NE 16.2 ENE 0.0 51.9
11:05 15.3 15.6 74.0 1015.6 5.3 ENE 12.7 ENE 0.0 63.2
11:10 15.4 15.6 74.0 1015.6 6.1 ENE 11.6 ENE 0.0 87.0
11:15 15.4 15.7 73.6 1015.6 5.1 ENE 10.2 ENE 0.0 113.3
11:20 15.6 16.0 73.9 1015.6 0.6 SSE 2.5 SSE 0.0 104.0
11:25 15.8 16.2 74.5 1015.6 0.7 S 5.3 S 0.0 106.4
11:30 15.9 16.3 75.5 1015.7 3.6 SSE 7.8 SSW 0.0 84.3
11:35 15.9 16.2 75.7 1015.7 3.2 SSE 7.1 SSE 0.0 68.8
11:40 15.8 16.0 76.2 1015.7 2.8 SE 4.6 SSE 0.0 75.7
11:45 15.8 16.0 76.5 1015.7 3.3 SE 6.7 SE 0.0 75.4
11:50 15.8 16.0 75.4 1015.6 2.1 SSE 6.4 SE 0.0 83.6
11:55 15.8 16.0 73.5 1015.5 3.5 E 8.8 ENE 0.0 88.7
12:00 15.8 15.9 73.5 1015.5 5.2 ESE 13.4 SSE 0.0 84.0
12:05 15.7 15.9 73.4 1015.5 4.6 E 10.9 E 0.0 130.8
12:10 15.8 16.3 74.1 1015.4 4.1 ENE 12.0 ENE 0.0 153.6
12:15 15.9 16.4 73.5 1015.3 2.9 E 8.8 ENE 0.0 150.9
12:20 15.9 16.6 71.9 1015.1 2.7 E 7.2 ENE 0.0 146.3
12:25 16.0 16.7 72.1 1014.9 3.6 NNE 11.6 N 0.0 158.5
12:30 16.0 16.8 73.2 1014.9 8.3 NNE 17.6 NNE 0.0 146.9
12:35 15.5 16.5 76.5 1014.7 11.3 NNE 23.6 N 0.0 193.6
12:40 15.4 16.4 77.6 1014.6 6.5 NE 13.8 NNE 0.0 232.1
12:45 15.5 16.6 77.6 1014.6 7.8 NNE 18.7 NNE 0.0 227.3
12:50 15.5 16.7 78.3 1014.6 4.6 NE 14.1 NE 0.0 206.1
12:55 15.5 16.7 77.2 1014.5 6.8 NE 16.6 NNE 0.0 185.5
13:00 15.5 16.5 77.1 1014.4 5.2 NE 12.0 NE 0.0 181.2
13:05 15.5 16.5 76.6 1014.2 5.7 NE 10.9 E 0.0 182.0
13:10 15.7 16.7 76.0 1014.2 4.4 NE 10.6 NE 0.0 182.2
13:15 15.8 16.8 75.4 1014.1 6.2 NNE 12.7 NE 0.0 181.2
13:20 15.8 16.7 73.9 1014.1 8.1 NNE 15.9 NNE 0.0 164.8
13:25 15.8 16.6 74.0 1014.2 6.4 NNE 16.2 NNE 0.0 165.5
13:30 15.8 16.6 73.8 1014.4 7.4 NNE 14.5 NE 0.0 176.8
13:35 15.8 16.6 74.1 1014.4 6.8 NNE 14.1 NNE 0.0 161.9
13:40 15.7 16.4 72.2 1014.3 7.1 NNE 16.6 ENE 0.0 140.7
13:45 15.8 16.4 71.8 1014.3 9.1 N 24.0 N 0.0 130.2
13:50 15.6 16.2 74.3 1014.3 11.9 N 18.4 N 0.0 125.5
13:55 15.5 16.0 75.5 1014.4 9.1 N 16.6 N 0.0 117.2
14:00 15.5 15.8 76.2 1014.6 8.3 N 13.8 WSW 0.0 91.8
14:05 15.3 15.5 77.0 1014.6 8.3 N 16.6 N 0.0 73.0
14:10 15.3 15.4 77.3 1014.7 4.7 NE 9.5 NNW 0.0 60.2
14:15 15.2 15.1 77.9 1014.6 3.2 ENE 6.4 NE 0.0 49.9
14:20 15.1 15.0 78.4 1014.6 3.6 E 5.3 E 0.0 42.8
14:25 15.0 14.8 79.3 1014.5 3.5 SE 7.8 ESE 0.0 36.9
14:30 15.0 14.6 79.4 1014.4 4.9 SSE 12.4 ESE 0.0 29.8
14:35 14.9 14.5 79.6 1014.4 3.4 SSE 8.5 SSW 0.0 21.8
14:40 14.8 14.3 79.8 1014.2 1.8 SSE 4.9 S 0.0 18.3
14:45 14.7 14.2 80.5 1014.1 3.7 S 6.4 S 0.0 17.3
14:50 14.6 14.0 82.1 1013.8 1.4 S 4.9 SSW 0.0 15.8
14:55 14.5 13.8 83.2 1013.6 1.7 NNE 4.9 NE 0.2 16.8
15:00 14.2 13.5 84.6 1013.5 6.9 NE 14.8 NNE 0.1 19.4
15:05 13.8 13.0 86.5 1013.2 7.6 NNE 15.2 NNE 0.4 21.0
15:10 13.5 12.5 88.3 1012.9 7.2 NNE 12.4 NNE 0.3 29.5
15:15 13.2 12.2 89.6 1012.7 9.0 NNE 18.4 NNE 0.5 46.6
Máxima 16.8 21.3 97.6 1017.3 11.9 N 24.3 NE 0.5 675.7
Mínima 8.3 6.7 71.8 1012.7
Total 1.5